createdAt,value
2018-04-18T00:02:14.580Z,102244.14
2018-04-18T00:04:42.928Z,102245.05
2018-04-18T00:07:11.260Z,102246.80
2018-04-18T00:09:39.622Z,102247.70
2018-04-18T00:12:07.954Z,102251.64
2018-04-18T00:14:36.309Z,102254.73
2018-04-18T00:17:04.645Z,102263.86
2018-04-18T00:19:32.996Z,102262.58
2018-04-18T00:22:01.324Z,102257.02
2018-04-18T00:24:29.680Z,102256.98
2018-04-18T00:26:58.012Z,102256.09
2018-04-18T00:29:26.369Z,102257.45
2018-04-18T00:31:54.709Z,102254.94
2018-04-18T00:34:23.061Z,102253.30
2018-04-18T00:36:51.392Z,102260.63
2018-04-18T00:39:19.749Z,102263.70
2018-04-18T00:41:48.086Z,102260.27
2018-04-18T00:44:16.442Z,102264.13
2018-04-18T00:46:44.772Z,102273.18
2018-04-18T00:49:13.135Z,102265.45
2018-04-18T00:51:41.464Z,102263.36
2018-04-18T00:54:09.828Z,102266.40
2018-04-18T00:56:38.157Z,102268.12
2018-04-18T00:59:06.492Z,102273.30
2018-04-18T01:01:34.849Z,102271.61
2018-04-18T01:04:03.181Z,102275.53
2018-04-18T01:06:31.536Z,102273.90
2018-04-18T01:08:59.872Z,102278.22
2018-04-18T01:11:28.223Z,102279.08
2018-04-18T01:13:56.552Z,102282.93
2018-04-18T01:16:25.489Z,102281.26
2018-04-18T01:18:53.820Z,102288.13
2018-04-18T01:21:22.169Z,102286.87
2018-04-18T01:23:50.505Z,102287.30
2018-04-18T01:26:18.861Z,102287.75
2018-04-18T01:28:47.189Z,102289.47
2018-04-18T01:31:15.543Z,102289.47
2018-04-18T01:33:43.875Z,102294.62
2018-04-18T01:36:12.220Z,102290.75
2018-04-18T01:38:40.556Z,102283.45
2018-04-18T01:41:08.904Z,102283.91
2018-04-18T01:43:37.236Z,102284.79
2018-04-18T01:46:05.584Z,102286.10
2018-04-18T01:48:33.921Z,102293.83
2018-04-18T01:51:02.268Z,102292.53
2018-04-18T01:53:30.605Z,102293.02
2018-04-18T01:55:58.952Z,102296.44
2018-04-18T01:58:27.294Z,102299.89
2018-04-18T02:00:55.640Z,102298.20
2018-04-18T02:03:24.004Z,102301.67
2018-04-18T02:05:52.335Z,102302.95
2018-04-18T02:08:20.668Z,102300.83
2018-04-18T02:10:49.017Z,102302.11
2018-04-18T02:13:17.353Z,102304.68
2018-04-18T02:15:45.708Z,102311.56
2018-04-18T02:18:14.057Z,102309.00
2018-04-18T02:20:42.402Z,102314.60
2018-04-18T02:23:10.728Z,102313.75
2018-04-18T02:25:39.085Z,102316.80
2018-04-18T02:28:07.412Z,102319.82
2018-04-18T02:30:35.767Z,102323.27
2018-04-18T02:33:04.089Z,102326.72
2018-04-18T02:35:32.432Z,102318.11
2018-04-18T02:38:00.764Z,102319.42
2018-04-18T02:40:29.113Z,102328.86
2018-04-18T02:42:57.446Z,102326.28
2018-04-18T02:45:25.801Z,102330.16
2018-04-18T02:47:54.129Z,102336.60
2018-04-18T02:50:22.497Z,102338.73
2018-04-18T02:52:50.833Z,102344.75
2018-04-18T02:55:19.193Z,102340.03
2018-04-18T02:57:47.520Z,102341.36
2018-04-18T03:00:15.852Z,102343.94
2018-04-18T03:02:44.196Z,102348.66
2018-04-18T03:05:12.535Z,102349.53
2018-04-18T03:07:40.896Z,102351.27
2018-04-18T03:10:09.224Z,102347.81
2018-04-18T03:12:37.584Z,102349.13
2018-04-18T03:15:05.925Z,102352.10
2018-04-18T03:17:34.325Z,102350.36
2018-04-18T03:20:02.623Z,102355.52
2018-04-18T03:22:30.972Z,102357.67
2018-04-18T03:24:59.315Z,102358.10
2018-04-18T03:27:27.688Z,102360.66
2018-04-18T03:29:56.017Z,102363.67
2018-04-18T03:32:24.381Z,102364.55
2018-04-18T03:34:52.717Z,102366.66
2018-04-18T03:37:22.065Z,102366.24
2018-04-18T03:39:50.408Z,102367.53
2018-04-18T03:42:18.752Z,102370.09
2018-04-18T03:44:47.080Z,102376.94
2018-04-18T03:47:15.429Z,102379.09
2018-04-18T03:49:43.776Z,102386.78
2018-04-18T03:52:12.120Z,102395.78
2018-04-18T03:54:40.448Z,102398.34
2018-04-18T03:57:08.805Z,102396.20
2018-04-18T03:59:37.130Z,102402.64
2018-04-18T04:02:05.477Z,102405.22
2018-04-18T04:04:33.808Z,102402.20
2018-04-18T04:07:02.161Z,102410.36
2018-04-18T04:09:30.493Z,102408.20
2018-04-18T04:11:58.843Z,102409.47
2018-04-18T04:14:27.176Z,102419.32
2018-04-18T04:17:07.315Z,102415.88
2018-04-18T04:22:50.433Z,102428.69
2018-04-18T04:25:18.767Z,102427.86
2018-04-18T04:27:47.113Z,102434.30
2018-04-18T04:30:15.453Z,102438.14
2018-04-18T04:32:43.812Z,102437.73
2018-04-18T04:35:12.149Z,102436.44
2018-04-18T04:37:40.495Z,102445.43
2018-04-18T04:40:08.829Z,102450.13
2018-04-18T04:42:37.189Z,102447.56
2018-04-18T04:45:05.541Z,102448.88
2018-04-18T04:47:33.873Z,102456.58
2018-04-18T04:50:02.206Z,102459.14
2018-04-18T04:52:30.563Z,102453.56
2018-04-18T04:54:58.901Z,102458.71
2018-04-18T04:57:27.261Z,102464.27
2018-04-18T04:59:55.593Z,102463.44
2018-04-18T05:02:23.948Z,102466.86
2018-04-18T05:04:52.273Z,102468.16
2018-04-18T05:07:20.641Z,102466.90
2018-04-18T05:09:48.980Z,102475.91
2018-04-18T05:12:17.345Z,102483.22
2018-04-18T05:14:45.668Z,102482.36
2018-04-18T05:17:14.029Z,102485.80
2018-04-18T05:19:42.352Z,102483.23
2018-04-18T05:22:10.709Z,102484.06
2018-04-18T05:24:39.045Z,102493.08
2018-04-18T05:27:07.401Z,102496.08
2018-04-18T05:29:35.725Z,102498.18
2018-04-18T05:32:04.085Z,102503.75
2018-04-18T05:34:33.673Z,102502.86
2018-04-18T05:37:02.282Z,102507.55
2018-04-18T05:39:30.612Z,102507.94
2018-04-18T05:41:58.965Z,102517.34
2018-04-18T05:44:27.294Z,102512.13
2018-04-18T05:46:55.676Z,102514.55
2018-04-18T05:49:24.006Z,102522.77
2018-04-18T05:51:52.331Z,102522.79
2018-04-18T05:54:20.680Z,102520.99
2018-04-18T05:56:49.016Z,102522.72
2018-04-18T05:59:17.371Z,102520.51
2018-04-18T06:01:45.712Z,102532.08
2018-04-18T06:04:14.069Z,102535.42
2018-04-18T06:06:43.360Z,102534.92
2018-04-18T06:09:11.716Z,102539.89
2018-04-18T06:11:40.053Z,102537.67
2018-04-18T06:14:08.413Z,102538.75
2018-04-18T06:16:36.745Z,102546.40
2018-04-18T06:19:05.128Z,102546.55
2018-04-18T06:21:33.444Z,102549.28
2018-04-18T06:24:01.797Z,102550.78
2018-04-18T06:26:30.132Z,102554.02
2018-04-18T06:28:58.505Z,102552.89
2018-04-18T06:31:26.837Z,102557.25
2018-04-18T06:33:55.187Z,102556.95
2018-04-18T06:36:23.788Z,102556.89
2018-04-18T06:38:52.129Z,102561.00
2018-04-18T06:41:20.456Z,102565.08
2018-04-18T06:43:48.815Z,102562.83
2018-04-18T06:46:17.145Z,102569.61
2018-04-18T06:48:45.500Z,102568.73
2018-04-18T06:51:13.846Z,102569.47
2018-04-18T06:53:42.184Z,102574.61
2018-04-18T06:56:10.512Z,102578.41
2018-04-18T06:58:38.864Z,102572.23
2018-04-18T07:01:07.207Z,102580.29
2018-04-18T07:03:35.556Z,102577.54
2018-04-18T07:06:03.892Z,102579.95
2018-04-18T07:08:32.240Z,102579.05
2018-04-18T07:11:00.574Z,102582.43
2018-04-18T07:13:28.929Z,102584.74
2018-04-18T07:15:57.260Z,102594.41
2018-04-18T07:18:25.604Z,102593.77
2018-04-18T07:20:53.933Z,102588.84
2018-04-18T07:23:22.317Z,102593.34
2018-04-18T07:25:50.652Z,102594.09
2018-04-18T07:28:18.998Z,102596.25
2018-04-18T07:30:47.328Z,102595.14
2018-04-18T07:33:15.684Z,102597.06
2018-04-18T07:35:44.016Z,102594.55
2018-04-18T07:38:12.369Z,102598.33
2018-04-18T07:40:40.700Z,102594.84
2018-04-18T07:43:09.052Z,102600.03
2018-04-18T07:45:37.383Z,102610.28
2018-04-18T07:48:05.763Z,102610.15
2018-04-18T07:50:34.093Z,102614.81
2018-04-18T07:53:02.416Z,102613.34
2018-04-18T07:55:30.768Z,102614.48
2018-04-18T07:57:59.105Z,102625.58
2018-04-18T08:00:27.461Z,102630.27
2018-04-18T08:02:55.789Z,102630.70
2018-04-18T08:05:24.147Z,102636.70
2018-04-18T08:07:52.476Z,102636.69
2018-04-18T08:10:20.824Z,102637.42
2018-04-18T08:12:49.158Z,102639.95
2018-04-18T08:15:17.565Z,102641.02
2018-04-18T08:17:45.837Z,102641.21
2018-04-18T08:20:14.198Z,102646.51
2018-04-18T08:22:42.524Z,102643.67
2018-04-18T08:25:10.880Z,102636.61
2018-04-18T08:27:39.220Z,102633.73
2018-04-18T08:30:07.569Z,102633.53
2018-04-18T08:32:35.900Z,102634.82
2018-04-18T08:35:04.248Z,102633.98
2018-04-18T08:37:32.576Z,102636.97
2018-04-18T08:40:00.935Z,102642.90
2018-04-18T08:42:29.261Z,102645.70
2018-04-18T08:44:57.616Z,102644.81
2018-04-18T08:47:25.953Z,102646.22
2018-04-18T08:49:54.319Z,102643.04
2018-04-18T08:52:22.648Z,102650.25
2018-04-18T08:54:51.009Z,102642.09
2018-04-18T08:57:19.341Z,102641.83
2018-04-18T08:59:47.688Z,102644.58
2018-04-18T09:02:16.016Z,102647.09
2018-04-18T09:04:44.368Z,102644.29
2018-04-18T09:07:12.709Z,102646.09
2018-04-18T09:09:41.166Z,102650.70
2018-04-18T09:12:09.493Z,102646.20
2018-04-18T09:14:37.824Z,102637.92
2018-04-18T09:17:06.180Z,102633.81
2018-04-18T09:19:34.532Z,102640.05
2018-04-18T09:22:02.869Z,102632.35
2018-04-18T09:24:31.222Z,102629.66
2018-04-18T09:26:59.557Z,102634.17
2018-04-18T09:29:27.909Z,102633.01
2018-04-18T09:31:56.240Z,102629.28
2018-04-18T09:34:24.589Z,102633.53
2018-04-18T09:36:52.925Z,102624.81
2018-04-18T09:39:21.277Z,102624.56
2018-04-18T09:41:49.604Z,102622.79
2018-04-18T09:44:17.964Z,102620.95
2018-04-18T09:46:46.293Z,102617.26
2018-04-18T09:49:14.652Z,102619.38
2018-04-18T09:51:42.980Z,102611.30
2018-04-18T09:54:11.315Z,102615.34
2018-04-18T09:56:39.669Z,102615.78
2018-04-18T09:59:08.001Z,102619.03
2018-04-18T10:01:41.912Z,102615.89
2018-04-18T10:04:10.247Z,102609.97
2018-04-18T10:06:38.600Z,102612.30
2018-04-18T10:09:06.933Z,102606.45
2018-04-18T10:11:35.289Z,102601.44
2018-04-18T10:14:03.621Z,102606.37
2018-04-18T10:16:31.973Z,102607.03
2018-04-18T10:19:00.301Z,102607.48
2018-04-18T10:21:28.656Z,102604.16
2018-04-18T10:23:56.994Z,102606.94
2018-04-18T10:26:25.349Z,102606.55
2018-04-18T10:28:53.686Z,102602.71
2018-04-18T10:31:22.042Z,102598.72
2018-04-18T10:33:50.369Z,102607.97
2018-04-18T10:36:18.724Z,102608.31
2018-04-18T10:38:47.062Z,102607.89
2018-04-18T10:41:15.416Z,102606.80
2018-04-18T10:43:43.752Z,102599.61
2018-04-18T10:46:12.104Z,102608.72
2018-04-18T10:48:40.432Z,102609.63
2018-04-18T10:51:08.786Z,102610.00
2018-04-18T10:53:37.117Z,102605.84
2018-04-18T10:56:05.472Z,102602.66
2018-04-18T10:58:33.863Z,102598.53
2018-04-18T11:01:02.160Z,102597.35
2018-04-18T11:03:30.489Z,102607.45
2018-04-18T11:05:58.913Z,102600.20
2018-04-18T11:08:27.181Z,102598.96
2018-04-18T11:10:55.529Z,102600.22
2018-04-18T11:13:23.863Z,102593.77
2018-04-18T11:15:52.212Z,102595.58
2018-04-18T11:18:20.545Z,102591.94
2018-04-18T11:20:48.896Z,102588.27
2018-04-18T11:23:17.228Z,102580.88
2018-04-18T11:25:45.585Z,102581.95
2018-04-18T11:28:13.925Z,102583.31
2018-04-18T11:30:42.276Z,102576.58
2018-04-18T11:33:10.609Z,102582.45
2018-04-18T11:35:38.961Z,102579.84
2018-04-18T11:38:07.287Z,102575.49
2018-04-18T11:40:35.641Z,102574.50
2018-04-18T11:43:03.978Z,102571.03
2018-04-18T11:45:32.346Z,102571.05
2018-04-18T11:48:00.665Z,102563.84
2018-04-18T11:50:29.021Z,102568.59
2018-04-18T11:52:57.357Z,102571.50
2018-04-18T11:55:25.684Z,102570.83
2018-04-18T11:57:54.044Z,102563.10
2018-04-18T12:00:22.381Z,102567.48
2018-04-18T12:02:50.733Z,102565.48
2018-04-18T12:05:19.069Z,102564.25
2018-04-18T12:07:47.424Z,102567.78
2018-04-18T12:10:15.760Z,102567.20
2018-04-18T12:12:44.118Z,102568.32
2018-04-18T12:15:12.440Z,102569.46
2018-04-18T12:17:40.793Z,102569.17
2018-04-18T12:20:09.137Z,102568.46
2018-04-18T12:22:37.484Z,102566.95
2018-04-18T12:25:05.825Z,102565.81
2018-04-18T12:27:34.180Z,102564.67
2018-04-18T12:30:02.516Z,102562.00
2018-04-18T12:32:30.876Z,102568.20
2018-04-18T12:34:59.224Z,102571.36
2018-04-18T12:37:27.594Z,102566.05
2018-04-18T12:39:55.933Z,102563.77
2018-04-18T12:42:24.293Z,102570.66
2018-04-18T12:44:52.639Z,102573.36
2018-04-18T12:47:21.932Z,102569.75
2018-04-18T12:49:50.265Z,102574.50
2018-04-18T12:52:18.624Z,102562.23
2018-04-18T12:54:46.956Z,102565.87
2018-04-18T12:57:16.258Z,102558.92
2018-04-18T12:59:44.589Z,102555.17
2018-04-18T13:02:12.945Z,102550.55
2018-04-18T13:04:41.277Z,102552.83
2018-04-18T13:07:09.641Z,102553.00
2018-04-18T13:09:37.984Z,102548.16
2018-04-18T13:12:06.341Z,102550.27
2018-04-18T13:14:34.684Z,102551.09
2018-04-18T13:17:03.045Z,102549.20
2018-04-18T13:19:31.389Z,102546.72
2018-04-18T13:21:59.768Z,102540.11
2018-04-18T13:24:28.108Z,102537.45
2018-04-18T13:26:56.687Z,102538.19
2018-04-18T13:29:25.332Z,102536.17
2018-04-18T13:31:53.876Z,102530.05
2018-04-18T13:34:23.306Z,102518.02
2018-04-18T13:36:52.661Z,102525.49
2018-04-18T13:39:21.012Z,102530.94
2018-04-18T13:41:50.101Z,102521.41
2018-04-18T13:44:18.437Z,102522.83
2018-04-18T13:46:46.806Z,102524.27
2018-04-18T13:49:15.155Z,102519.62
2018-04-18T13:51:43.521Z,102516.95
2018-04-18T13:54:11.864Z,102517.34
2018-04-18T13:56:40.248Z,102508.22
2018-04-18T13:59:08.625Z,102516.64
2018-04-18T14:01:37.005Z,102508.64
2018-04-18T14:04:05.369Z,102510.24
2018-04-18T14:06:34.688Z,102513.99
2018-04-18T14:09:04.165Z,102509.53
2018-04-18T14:11:32.621Z,102504.91
2018-04-18T14:14:00.987Z,102505.80
2018-04-18T14:16:31.161Z,102498.38
2018-04-18T14:18:59.548Z,102495.30
2018-04-18T14:21:27.888Z,102492.59
2018-04-18T14:23:56.240Z,102492.59
2018-04-18T14:26:24.576Z,102489.70
2018-04-18T14:28:52.941Z,102488.74
2018-04-18T14:31:21.278Z,102482.67
2018-04-18T14:33:49.632Z,102486.60
2018-04-18T14:36:17.969Z,102483.69
2018-04-18T14:38:46.328Z,102487.97
2018-04-18T14:41:14.673Z,102485.63
2018-04-18T14:43:43.024Z,102486.95
2018-04-18T14:46:11.369Z,102478.11
2018-04-18T14:48:39.724Z,102483.44
2018-04-18T14:51:08.077Z,102479.41
2018-04-18T14:53:36.446Z,102483.80
2018-04-18T14:56:04.784Z,102487.98
2018-04-18T14:58:33.143Z,102480.70
2018-04-18T15:01:01.730Z,102486.95
2018-04-18T15:03:30.093Z,102485.40
2018-04-18T15:05:58.432Z,102479.09
2018-04-18T15:08:26.797Z,102477.69
2018-04-18T15:10:55.136Z,102476.41
2018-04-18T15:13:23.501Z,102475.15
2018-04-18T15:15:51.844Z,102476.25
2018-04-18T15:18:20.205Z,102482.23
2018-04-18T15:20:48.549Z,102478.36
2018-04-18T15:23:16.913Z,102473.79
2018-04-18T15:25:45.264Z,102471.54
2018-04-18T15:28:13.621Z,102469.66
2018-04-18T15:30:41.957Z,102464.59
2018-04-18T15:33:10.313Z,102463.00
2018-04-18T15:35:38.663Z,102458.20
2018-04-18T15:38:07.026Z,102462.80
2018-04-18T15:40:35.369Z,102458.36
2018-04-18T15:43:03.745Z,102465.56
2018-04-18T15:45:32.100Z,102458.08
2018-04-18T15:48:00.472Z,102455.28
2018-04-18T15:50:28.853Z,102452.69
2018-04-18T15:52:57.197Z,102453.64
2018-04-18T15:55:25.545Z,102450.32
2018-04-18T15:57:53.910Z,102452.62
2018-04-18T16:00:22.262Z,102450.59
2018-04-18T16:02:50.613Z,102450.33
2018-04-18T16:05:18.974Z,102454.01
2018-04-18T16:07:47.326Z,102448.66
2018-04-18T16:10:15.693Z,102447.41
2018-04-18T16:12:44.061Z,102446.82
2018-04-18T16:15:12.412Z,102448.89
2018-04-18T16:17:41.658Z,102448.67
2018-04-18T16:20:10.026Z,102440.93
2018-04-18T16:22:38.375Z,102448.38
2018-04-18T16:25:06.737Z,102448.19
2018-04-18T16:27:35.073Z,102448.91
2018-04-18T16:30:03.504Z,102454.84
2018-04-18T16:32:31.876Z,102452.02
2018-04-18T16:35:00.160Z,102446.81
2018-04-18T16:37:28.500Z,102446.58
2018-04-18T16:39:56.883Z,102442.84
2018-04-18T16:42:25.217Z,102446.42
2018-04-18T16:44:53.575Z,102445.04
2018-04-18T16:47:21.917Z,102447.36
2018-04-18T16:49:50.277Z,102442.70
2018-04-18T16:52:18.624Z,102440.58
2018-04-18T16:54:46.989Z,102437.27
2018-04-18T16:57:16.297Z,102437.75
2018-04-18T16:59:44.659Z,102441.12
2018-04-18T17:02:12.997Z,102438.69
2018-04-18T17:04:41.360Z,102437.35
2018-04-18T17:07:09.705Z,102435.58
2018-04-18T17:09:38.062Z,102432.39
2018-04-18T17:12:06.402Z,102438.70
2018-04-18T17:14:34.756Z,102428.58
2018-04-18T17:17:03.596Z,102424.95
2018-04-18T17:19:31.961Z,102432.33
2018-04-18T17:22:00.296Z,102430.45
2018-04-18T17:24:28.652Z,102431.66
2018-04-18T17:27:39.514Z,102433.47
2018-04-18T17:30:07.875Z,102435.64
2018-04-18T17:33:24.574Z,102431.92
2018-04-18T17:35:52.924Z,102432.02
2018-04-18T17:38:22.061Z,102434.55
2018-04-18T17:43:20.637Z,102439.53
2018-04-18T17:48:29.040Z,102443.27
2018-04-18T17:50:57.409Z,102443.06
2018-04-18T17:53:25.752Z,102439.54
2018-04-18T17:55:54.129Z,102437.02
2018-04-18T17:58:22.468Z,102441.39
2018-04-18T18:00:50.833Z,102444.71
2018-04-18T18:03:19.167Z,102441.81
2018-04-18T18:05:47.525Z,102446.36
2018-04-18T18:08:15.863Z,102447.52
2018-04-18T18:10:44.225Z,102446.41
2018-04-18T18:14:15.740Z,102447.34
2018-04-18T18:16:44.068Z,102445.34
2018-04-18T18:19:12.433Z,102452.48
2018-04-18T18:21:40.772Z,102451.79
2018-04-18T18:24:09.100Z,102457.85
2018-04-18T18:26:37.469Z,102459.73
2018-04-18T18:29:06.000Z,102459.38
2018-04-18T18:31:34.396Z,102460.66
2018-04-18T18:34:02.685Z,102460.42
2018-04-18T18:36:31.041Z,102461.16
2018-04-18T18:38:59.376Z,102461.86
2018-04-18T18:41:27.734Z,102463.55
2018-04-18T18:43:56.077Z,102471.20
2018-04-18T18:46:24.539Z,102477.11
2018-04-18T18:48:53.829Z,102469.50
2018-04-18T18:51:22.192Z,102466.18
2018-04-18T18:53:50.529Z,102471.00
2018-04-18T18:56:18.889Z,102471.28
2018-04-18T18:58:47.224Z,102472.31
2018-04-18T19:01:15.585Z,102473.58
2018-04-18T19:03:43.921Z,102473.19
2018-04-18T19:06:12.285Z,102473.96
2018-04-18T19:08:41.164Z,102474.88
2018-04-18T19:11:09.529Z,102477.89
2018-04-18T19:13:37.868Z,102477.48
2018-04-18T19:16:06.229Z,102481.00
2018-04-18T19:18:34.572Z,102486.08
2018-04-18T19:21:02.948Z,102481.68
2018-04-18T19:23:31.298Z,102482.13
2018-04-18T19:25:59.645Z,102481.27
2018-04-18T19:28:28.007Z,102481.19
2018-04-18T19:30:56.349Z,102485.86
2018-04-18T19:33:24.726Z,102489.27
2018-04-18T19:35:53.089Z,102487.33
2018-04-18T19:38:21.438Z,102485.91
2018-04-18T19:40:49.801Z,102487.34
2018-04-18T19:43:18.145Z,102484.03
2018-04-18T19:45:46.505Z,102485.03
2018-04-18T19:48:14.857Z,102486.50
2018-04-18T19:50:43.217Z,102488.78
2018-04-18T19:53:11.555Z,102491.06
2018-04-18T19:55:39.908Z,102493.53
2018-04-18T19:58:08.252Z,102495.67
2018-04-18T20:00:36.612Z,102498.22
2018-04-18T20:03:04.957Z,102497.41
2018-04-18T20:05:33.338Z,102496.72
2018-04-18T20:08:01.666Z,102494.37
2018-04-18T20:10:30.034Z,102496.92
2018-04-18T20:12:58.403Z,102497.22
2018-04-18T20:15:26.771Z,102495.01
2018-04-18T20:17:55.114Z,102487.89
2018-04-18T20:20:23.469Z,102492.64
2018-04-18T20:22:51.801Z,102488.11
2018-04-18T20:25:20.146Z,102494.17
2018-04-18T20:27:48.506Z,102493.05
2018-04-18T20:30:16.996Z,102493.66
2018-04-18T20:32:45.357Z,102498.34
2018-04-18T20:35:13.703Z,102500.33
2018-04-18T20:37:42.080Z,102501.84
2018-04-18T20:40:10.427Z,102501.14
2018-04-18T20:42:38.781Z,102499.92
2018-04-18T20:45:07.118Z,102504.76
2018-04-18T20:47:35.486Z,102493.95
2018-04-18T20:50:03.853Z,102500.17
2018-04-18T20:52:32.213Z,102498.88
2018-04-18T20:55:00.549Z,102500.97
2018-04-18T20:57:28.909Z,102502.33
2018-04-18T21:02:39.614Z,102505.53
2018-04-18T21:05:07.986Z,102501.30
2018-04-18T21:07:36.309Z,102500.52
2018-04-18T21:10:04.642Z,102506.73
2018-04-18T21:12:33.000Z,102504.42
2018-04-18T21:15:01.328Z,102501.63
2018-04-18T21:17:29.685Z,102506.05
2018-04-18T21:19:58.017Z,102510.44
2018-04-18T21:22:26.364Z,102510.83
2018-04-18T21:24:54.696Z,102510.53
2018-04-18T21:27:23.052Z,102513.29
2018-04-18T21:29:51.380Z,102514.39
2018-04-18T21:32:19.736Z,102509.46
2018-04-18T21:34:48.072Z,102509.52
2018-04-18T21:37:16.416Z,102514.80
2018-04-18T21:39:44.750Z,102511.40
2018-04-18T21:42:13.104Z,102513.21
2018-04-18T21:44:41.441Z,102510.14
2018-04-18T21:47:09.796Z,102512.66
2018-04-18T21:49:38.125Z,102517.77
2018-04-18T21:52:06.478Z,102514.03
2018-04-18T21:54:34.804Z,102520.22
2018-04-18T21:57:03.149Z,102517.75
2018-04-18T21:59:31.484Z,102517.75
2018-04-18T22:01:59.837Z,102513.44
2018-04-18T22:04:28.168Z,102506.61
2018-04-18T22:06:56.521Z,102508.42
2018-04-18T22:09:24.848Z,102503.43
2018-04-18T22:11:53.201Z,102501.27
2018-04-18T22:14:21.533Z,102508.19
2018-04-18T22:16:49.947Z,102500.42
2018-04-18T22:19:18.209Z,102501.77
2018-04-18T22:21:46.564Z,102499.18
2018-04-18T22:24:14.893Z,102501.53
2018-04-18T22:26:43.245Z,102509.03
2018-04-18T22:29:11.576Z,102504.81
2018-04-18T22:31:39.931Z,102501.86
2018-04-18T22:34:08.257Z,102506.23
2018-04-18T22:36:36.585Z,102508.54
2018-04-18T22:39:04.936Z,102511.55
2018-04-18T22:41:33.267Z,102513.70
2018-04-18T22:44:01.620Z,102515.83
2018-04-18T22:46:29.943Z,102514.63
2018-04-18T22:48:58.300Z,102512.03
2018-04-18T22:51:26.637Z,102509.52
2018-04-18T22:53:54.984Z,102507.91
2018-04-18T22:56:23.317Z,102509.21
2018-04-18T22:58:51.664Z,102507.98
2018-04-18T23:01:20.002Z,102512.77
2018-04-18T23:03:48.352Z,102513.70
2018-04-18T23:06:16.686Z,102515.75
2018-04-18T23:08:45.036Z,102514.38
2018-04-18T23:11:13.373Z,102512.59
2018-04-18T23:13:41.737Z,102508.59
2018-04-18T23:16:10.064Z,102509.83
2018-04-18T23:18:38.421Z,102508.58
2018-04-18T23:21:06.752Z,102511.25
2018-04-18T23:23:35.112Z,102513.03
2018-04-18T23:26:03.441Z,102511.41
2018-04-18T23:28:31.797Z,102505.07
2018-04-18T23:31:00.125Z,102502.48
2018-04-18T23:33:28.477Z,102508.58
2018-04-18T23:35:56.813Z,102502.59
2018-04-18T23:38:25.160Z,102500.51
2018-04-18T23:40:53.487Z,102496.81
2018-04-18T23:43:21.849Z,102505.66
2018-04-18T23:45:50.185Z,102503.25
2018-04-18T23:48:18.532Z,102496.44
2018-04-18T23:50:46.860Z,102492.62
2018-04-18T23:53:15.217Z,102492.62
2018-04-18T23:55:43.546Z,102500.00
2018-04-18T23:58:11.909Z,102502.25
